sensor_id;sensor_type;location;lat;lon;timestamp;P1;durP1;ratioP1;P2;durP2;ratioP2
17173;SDS011;8702;48.130;-1.696;2022-09-27T00:00:57;15.90;;;3.10;;
17173;SDS011;8702;48.130;-1.696;2022-09-27T00:03:25;12.73;;;3.03;;
17173;SDS011;8702;48.130;-1.696;2022-09-27T00:05:59;9.00;;;2.67;;
17173;SDS011;8702;48.130;-1.696;2022-09-27T00:08:29;11.13;;;2.58;;
17173;SDS011;8702;48.130;-1.696;2022-09-27T00:10:58;9.82;;;2.72;;
17173;SDS011;8702;48.130;-1.696;2022-09-27T00:13:26;12.63;;;3.00;;
17173;SDS011;8702;48.130;-1.696;2022-09-27T00:15:56;10.32;;;2.67;;
17173;SDS011;8702;48.130;-1.696;2022-09-27T00:18:25;8.27;;;2.43;;
17173;SDS011;8702;48.130;-1.696;2022-09-27T00:20:53;11.73;;;2.97;;
17173;SDS011;8702;48.130;-1.696;2022-09-27T00:23:20;12.32;;;3.10;;
17173;SDS011;8702;48.130;-1.696;2022-09-27T00:25:53;10.48;;;2.60;;
17173;SDS011;8702;48.130;-1.696;2022-09-27T00:28:21;8.55;;;2.38;;
17173;SDS011;8702;48.130;-1.696;2022-09-27T00:30:48;12.40;;;2.90;;
17173;SDS011;8702;48.130;-1.696;2022-09-27T00:33:16;9.50;;;2.58;;
17173;SDS011;8702;48.130;-1.696;2022-09-27T00:35:44;8.52;;;2.45;;
17173;SDS011;8702;48.130;-1.696;2022-09-27T00:38:11;10.25;;;2.80;;
17173;SDS011;8702;48.130;-1.696;2022-09-27T00:40:39;8.15;;;2.55;;
17173;SDS011;8702;48.130;-1.696;2022-09-27T00:43:10;11.88;;;2.38;;
17173;SDS011;8702;48.130;-1.696;2022-09-27T00:45:42;8.65;;;2.50;;
17173;SDS011;8702;48.130;-1.696;2022-09-27T00:48:11;7.57;;;2.43;;
17173;SDS011;8702;48.130;-1.696;2022-09-27T00:50:44;9.68;;;2.30;;
17173;SDS011;8702;48.130;-1.696;2022-09-27T00:53:15;8.82;;;2.45;;
17173;SDS011;8702;48.130;-1.696;2022-09-27T00:55:47;11.93;;;2.67;;
17173;SDS011;8702;48.130;-1.696;2022-09-27T00:58:19;10.98;;;2.42;;
17173;SDS011;8702;48.130;-1.696;2022-09-27T01:00:51;7.55;;;2.15;;
17173;SDS011;8702;48.130;-1.696;2022-09-27T01:03:22;8.27;;;2.13;;
17173;SDS011;8702;48.130;-1.696;2022-09-27T01:05:56;7.75;;;2.22;;
17173;SDS011;8702;48.130;-1.696;2022-09-27T01:08:24;8.45;;;2.08;;
17173;SDS011;8702;48.130;-1.696;2022-09-27T01:10:54;9.35;;;2.40;;
17173;SDS011;8702;48.130;-1.696;2022-09-27T01:13:34;10.02;;;2.33;;
17173;SDS011;8702;48.130;-1.696;2022-09-27T01:16:07;7.45;;;2.20;;
17173;SDS011;8702;48.130;-1.696;2022-09-27T01:18:40;10.48;;;2.33;;
17173;SDS011;8702;48.130;-1.696;2022-09-27T01:21:38;9.95;;;2.30;;
17173;SDS011;8702;48.130;-1.696;2022-09-27T01:24:18;8.90;;;2.27;;
17173;SDS011;8702;48.130;-1.696;2022-09-27T01:33:05;8.75;;;2.03;;
17173;SDS011;8702;48.130;-1.696;2022-09-27T01:35:47;8.07;;;2.30;;
17173;SDS011;8702;48.130;-1.696;2022-09-27T01:38:24;9.50;;;2.28;;
17173;SDS011;8702;48.130;-1.696;2022-09-27T01:41:00;13.70;;;2.45;;
17173;SDS011;8702;48.130;-1.696;2022-09-27T01:43:35;9.07;;;2.20;;
17173;SDS011;8702;48.130;-1.696;2022-09-27T01:46:09;9.52;;;2.50;;
17173;SDS011;8702;48.130;-1.696;2022-09-27T01:48:41;8.90;;;2.47;;
17173;SDS011;8702;48.130;-1.696;2022-09-27T01:51:13;9.53;;;2.20;;
17173;SDS011;8702;48.130;-1.696;2022-09-27T01:53:43;10.52;;;2.65;;
17173;SDS011;8702;48.130;-1.696;2022-09-27T01:56:15;10.07;;;2.45;;
17173;SDS011;8702;48.130;-1.696;2022-09-27T01:58:48;11.18;;;2.65;;
17173;SDS011;8702;48.130;-1.696;2022-09-27T02:01:20;8.70;;;2.40;;
17173;SDS011;8702;48.130;-1.696;2022-09-27T02:03:50;11.20;;;2.50;;
17173;SDS011;8702;48.130;-1.696;2022-09-27T02:06:20;14.10;;;2.95;;
17173;SDS011;8702;48.130;-1.696;2022-09-27T02:08:50;9.55;;;2.67;;
17173;SDS011;8702;48.130;-1.696;2022-09-27T02:11:20;10.97;;;3.00;;
17173;SDS011;8702;48.130;-1.696;2022-09-27T02:13:49;10.55;;;2.78;;
17173;SDS011;8702;48.130;-1.696;2022-09-27T02:16:22;10.23;;;2.83;;
17173;SDS011;8702;48.130;-1.696;2022-09-27T02:18:56;11.43;;;2.63;;
17173;SDS011;8702;48.130;-1.696;2022-09-27T02:21:35;9.32;;;2.35;;
17173;SDS011;8702;48.130;-1.696;2022-09-27T02:24:08;9.30;;;2.75;;
17173;SDS011;8702;48.130;-1.696;2022-09-27T02:26:41;12.45;;;2.80;;
17173;SDS011;8702;48.130;-1.696;2022-09-27T02:29:14;10.40;;;2.50;;
17173;SDS011;8702;48.130;-1.696;2022-09-27T02:31:46;12.60;;;2.90;;
17173;SDS011;8702;48.130;-1.696;2022-09-27T02:34:14;13.88;;;3.10;;
17173;SDS011;8702;48.130;-1.696;2022-09-27T02:36:45;12.05;;;3.17;;
17173;SDS011;8702;48.130;-1.696;2022-09-27T02:39:12;11.93;;;2.60;;
17173;SDS011;8702;48.130;-1.696;2022-09-27T02:41:39;10.57;;;2.60;;
17173;SDS011;8702;48.130;-1.696;2022-09-27T02:44:07;12.15;;;3.15;;
17173;SDS011;8702;48.130;-1.696;2022-09-27T02:46:42;9.03;;;2.43;;
17173;SDS011;8702;48.130;-1.696;2022-09-27T02:49:30;9.82;;;2.50;;
17173;SDS011;8702;48.130;-1.696;2022-09-27T02:52:11;12.02;;;2.92;;
17173;SDS011;8702;48.130;-1.696;2022-09-27T02:54:43;11.25;;;2.70;;
17173;SDS011;8702;48.130;-1.696;2022-09-27T02:57:21;13.95;;;3.03;;
17173;SDS011;8702;48.130;-1.696;2022-09-27T02:59:58;10.75;;;2.83;;
17173;SDS011;8702;48.130;-1.696;2022-09-27T03:02:33;10.43;;;2.58;;
17173;SDS011;8702;48.130;-1.696;2022-09-27T03:05:08;13.13;;;2.80;;
17173;SDS011;8702;48.130;-1.696;2022-09-27T03:07:38;12.20;;;3.10;;
17173;SDS011;8702;48.130;-1.696;2022-09-27T03:10:05;11.05;;;2.72;;
17173;SDS011;8702;48.130;-1.696;2022-09-27T03:12:32;9.40;;;2.65;;
17173;SDS011;8702;48.130;-1.696;2022-09-27T03:15:00;8.85;;;2.55;;
17173;SDS011;8702;48.130;-1.696;2022-09-27T03:17:27;10.90;;;2.88;;
17173;SDS011;8702;48.130;-1.696;2022-09-27T03:19:55;10.48;;;2.70;;
17173;SDS011;8702;48.130;-1.696;2022-09-27T03:22:22;11.38;;;2.88;;
17173;SDS011;8702;48.130;-1.696;2022-09-27T03:24:50;13.55;;;3.17;;
17173;SDS011;8702;48.130;-1.696;2022-09-27T03:27:17;11.30;;;2.97;;
17173;SDS011;8702;48.130;-1.696;2022-09-27T03:29:44;11.88;;;2.85;;
17173;SDS011;8702;48.130;-1.696;2022-09-27T03:32:11;11.00;;;2.90;;
17173;SDS011;8702;48.130;-1.696;2022-09-27T03:34:38;12.85;;;3.15;;
17173;SDS011;8702;48.130;-1.696;2022-09-27T03:37:07;11.70;;;3.00;;
17173;SDS011;8702;48.130;-1.696;2022-09-27T03:39:34;11.23;;;2.63;;
17173;SDS011;8702;48.130;-1.696;2022-09-27T03:42:01;12.23;;;2.80;;
17173;SDS011;8702;48.130;-1.696;2022-09-27T03:44:27;8.35;;;2.45;;
17173;SDS011;8702;48.130;-1.696;2022-09-27T03:46:54;10.27;;;2.83;;
17173;SDS011;8702;48.130;-1.696;2022-09-27T03:49:22;10.48;;;2.85;;
17173;SDS011;8702;48.130;-1.696;2022-09-27T03:51:49;13.05;;;2.70;;
17173;SDS011;8702;48.130;-1.696;2022-09-27T03:54:18;13.60;;;3.13;;
17173;SDS011;8702;48.130;-1.696;2022-09-27T03:56:45;12.07;;;2.97;;
17173;SDS011;8702;48.130;-1.696;2022-09-27T03:59:11;13.30;;;2.92;;
17173;SDS011;8702;48.130;-1.696;2022-09-27T04:01:38;10.13;;;2.70;;
17173;SDS011;8702;48.130;-1.696;2022-09-27T04:04:06;15.88;;;2.97;;
17173;SDS011;8702;48.130;-1.696;2022-09-27T04:06:33;10.03;;;2.73;;
17173;SDS011;8702;48.130;-1.696;2022-09-27T04:09:00;12.77;;;3.40;;
17173;SDS011;8702;48.130;-1.696;2022-09-27T04:11:28;12.00;;;2.83;;
17173;SDS011;8702;48.130;-1.696;2022-09-27T04:13:55;12.93;;;3.37;;
17173;SDS011;8702;48.130;-1.696;2022-09-27T04:16:22;14.43;;;3.05;;
17173;SDS011;8702;48.130;-1.696;2022-09-27T04:18:50;15.18;;;3.35;;
17173;SDS011;8702;48.130;-1.696;2022-09-27T04:21:17;12.63;;;3.33;;
17173;SDS011;8702;48.130;-1.696;2022-09-27T04:23:45;14.13;;;3.03;;
17173;SDS011;8702;48.130;-1.696;2022-09-27T04:26:12;14.00;;;3.40;;
17173;SDS011;8702;48.130;-1.696;2022-09-27T04:28:40;15.38;;;3.22;;
17173;SDS011;8702;48.130;-1.696;2022-09-27T04:31:07;13.27;;;3.07;;
17173;SDS011;8702;48.130;-1.696;2022-09-27T04:33:34;14.93;;;3.47;;
17173;SDS011;8702;48.130;-1.696;2022-09-27T04:36:01;12.27;;;3.22;;
17173;SDS011;8702;48.130;-1.696;2022-09-27T04:38:46;14.48;;;3.22;;
17173;SDS011;8702;48.130;-1.696;2022-09-27T04:41:13;13.80;;;3.30;;
17173;SDS011;8702;48.130;-1.696;2022-09-27T04:43:41;11.82;;;3.25;;
17173;SDS011;8702;48.130;-1.696;2022-09-27T04:46:08;14.10;;;3.75;;
17173;SDS011;8702;48.130;-1.696;2022-09-27T04:48:35;14.18;;;3.85;;
17173;SDS011;8702;48.130;-1.696;2022-09-27T04:51:02;11.80;;;3.20;;
17173;SDS011;8702;48.130;-1.696;2022-09-27T04:53:30;12.13;;;3.22;;
17173;SDS011;8702;48.130;-1.696;2022-09-27T04:55:57;15.13;;;3.58;;
17173;SDS011;8702;48.130;-1.696;2022-09-27T04:58:26;12.50;;;3.30;;
17173;SDS011;8702;48.130;-1.696;2022-09-27T05:00:55;14.63;;;3.33;;
17173;SDS011;8702;48.130;-1.696;2022-09-27T05:03:22;11.00;;;3.00;;
17173;SDS011;8702;48.130;-1.696;2022-09-27T05:05:49;17.38;;;3.30;;
17173;SDS011;8702;48.130;-1.696;2022-09-27T05:08:16;15.77;;;3.53;;
17173;SDS011;8702;48.130;-1.696;2022-09-27T05:10:43;15.05;;;3.50;;
17173;SDS011;8702;48.130;-1.696;2022-09-27T05:13:10;18.63;;;3.80;;
17173;SDS011;8702;48.130;-1.696;2022-09-27T05:15:37;14.82;;;3.38;;
17173;SDS011;8702;48.130;-1.696;2022-09-27T05:18:06;12.48;;;3.08;;
17173;SDS011;8702;48.130;-1.696;2022-09-27T05:20:36;14.60;;;3.37;;
17173;SDS011;8702;48.130;-1.696;2022-09-27T05:23:03;11.10;;;3.33;;
17173;SDS011;8702;48.130;-1.696;2022-09-27T05:25:31;11.57;;;3.33;;
17173;SDS011;8702;48.130;-1.696;2022-09-27T05:27:58;13.32;;;3.17;;
17173;SDS011;8702;48.130;-1.696;2022-09-27T05:30:25;11.60;;;2.93;;
17173;SDS011;8702;48.130;-1.696;2022-09-27T05:32:52;13.57;;;3.05;;
17173;SDS011;8702;48.130;-1.696;2022-09-27T05:35:21;14.27;;;3.20;;
17173;SDS011;8702;48.130;-1.696;2022-09-27T05:37:51;15.98;;;3.30;;
17173;SDS011;8702;48.130;-1.696;2022-09-27T05:40:18;10.35;;;3.10;;
17173;SDS011;8702;48.130;-1.696;2022-09-27T05:42:48;13.52;;;3.03;;
17173;SDS011;8702;48.130;-1.696;2022-09-27T05:45:16;11.32;;;2.92;;
17173;SDS011;8702;48.130;-1.696;2022-09-27T05:47:43;11.27;;;2.90;;
17173;SDS011;8702;48.130;-1.696;2022-09-27T05:50:18;12.45;;;2.92;;
17173;SDS011;8702;48.130;-1.696;2022-09-27T05:52:46;9.77;;;2.83;;
17173;SDS011;8702;48.130;-1.696;2022-09-27T05:55:13;10.70;;;3.10;;
17173;SDS011;8702;48.130;-1.696;2022-09-27T05:57:40;12.85;;;3.10;;
17173;SDS011;8702;48.130;-1.696;2022-09-27T06:00:08;11.45;;;2.80;;
17173;SDS011;8702;48.130;-1.696;2022-09-27T06:02:35;9.63;;;2.70;;
17173;SDS011;8702;48.130;-1.696;2022-09-27T06:05:02;11.37;;;2.80;;
17173;SDS011;8702;48.130;-1.696;2022-09-27T06:07:30;11.95;;;3.22;;
17173;SDS011;8702;48.130;-1.696;2022-09-27T06:09:58;16.83;;;3.58;;
17173;SDS011;8702;48.130;-1.696;2022-09-27T06:12:25;11.43;;;2.55;;
17173;SDS011;8702;48.130;-1.696;2022-09-27T06:14:52;12.68;;;2.97;;
17173;SDS011;8702;48.130;-1.696;2022-09-27T06:17:19;9.27;;;2.80;;
17173;SDS011;8702;48.130;-1.696;2022-09-27T06:19:46;9.75;;;2.63;;
17173;SDS011;8702;48.130;-1.696;2022-09-27T06:22:13;11.63;;;3.17;;
17173;SDS011;8702;48.130;-1.696;2022-09-27T06:24:40;15.65;;;3.53;;
17173;SDS011;8702;48.130;-1.696;2022-09-27T06:27:09;15.00;;;3.15;;
17173;SDS011;8702;48.130;-1.696;2022-09-27T06:29:36;13.50;;;3.55;;
17173;SDS011;8702;48.130;-1.696;2022-09-27T06:32:03;9.20;;;2.78;;
17173;SDS011;8702;48.130;-1.696;2022-09-27T06:34:30;12.52;;;2.80;;
17173;SDS011;8702;48.130;-1.696;2022-09-27T06:36:57;14.77;;;3.23;;
17173;SDS011;8702;48.130;-1.696;2022-09-27T06:39:24;13.07;;;3.20;;
17173;SDS011;8702;48.130;-1.696;2022-09-27T06:41:52;14.23;;;3.10;;
17173;SDS011;8702;48.130;-1.696;2022-09-27T06:44:23;13.80;;;3.20;;
17173;SDS011;8702;48.130;-1.696;2022-09-27T06:46:51;19.38;;;3.47;;
17173;SDS011;8702;48.130;-1.696;2022-09-27T06:49:19;15.20;;;3.25;;
17173;SDS011;8702;48.130;-1.696;2022-09-27T06:51:46;12.30;;;3.22;;
17173;SDS011;8702;48.130;-1.696;2022-09-27T06:54:14;15.80;;;3.20;;
17173;SDS011;8702;48.130;-1.696;2022-09-27T06:56:41;13.65;;;3.22;;
17173;SDS011;8702;48.130;-1.696;2022-09-27T06:59:08;13.32;;;3.33;;
17173;SDS011;8702;48.130;-1.696;2022-09-27T07:01:53;15.50;;;3.03;;
17173;SDS011;8702;48.130;-1.696;2022-09-27T07:04:20;13.68;;;3.45;;
17173;SDS011;8702;48.130;-1.696;2022-09-27T07:06:48;13.63;;;3.33;;
17173;SDS011;8702;48.130;-1.696;2022-09-27T07:09:15;10.03;;;2.80;;
17173;SDS011;8702;48.130;-1.696;2022-09-27T07:11:41;19.52;;;3.60;;
17173;SDS011;8702;48.130;-1.696;2022-09-27T07:14:10;12.63;;;3.20;;
17173;SDS011;8702;48.130;-1.696;2022-09-27T07:16:37;13.43;;;3.30;;
17173;SDS011;8702;48.130;-1.696;2022-09-27T07:19:05;12.77;;;3.50;;
17173;SDS011;8702;48.130;-1.696;2022-09-27T07:21:35;12.70;;;3.30;;
17173;SDS011;8702;48.130;-1.696;2022-09-27T07:24:02;15.13;;;3.60;;
17173;SDS011;8702;48.130;-1.696;2022-09-27T07:26:29;13.73;;;3.30;;
17173;SDS011;8702;48.130;-1.696;2022-09-27T07:28:56;11.93;;;3.42;;
17173;SDS011;8702;48.130;-1.696;2022-09-27T07:31:23;10.95;;;3.17;;
17173;SDS011;8702;48.130;-1.696;2022-09-27T07:33:50;15.40;;;3.50;;
17173;SDS011;8702;48.130;-1.696;2022-09-27T07:36:19;12.18;;;3.50;;
17173;SDS011;8702;48.130;-1.696;2022-09-27T07:38:46;12.30;;;3.30;;
17173;SDS011;8702;48.130;-1.696;2022-09-27T07:41:13;13.75;;;3.38;;
17173;SDS011;8702;48.130;-1.696;2022-09-27T07:43:40;9.77;;;3.15;;
17173;SDS011;8702;48.130;-1.696;2022-09-27T07:46:08;14.38;;;3.22;;
17173;SDS011;8702;48.130;-1.696;2022-09-27T07:48:37;13.05;;;3.22;;
17173;SDS011;8702;48.130;-1.696;2022-09-27T07:51:05;9.77;;;3.08;;
17173;SDS011;8702;48.130;-1.696;2022-09-27T07:53:36;15.13;;;3.60;;
17173;SDS011;8702;48.130;-1.696;2022-09-27T07:56:04;11.65;;;3.10;;
17173;SDS011;8702;48.130;-1.696;2022-09-27T07:58:32;12.30;;;3.00;;
17173;SDS011;8702;48.130;-1.696;2022-09-27T08:00:59;10.77;;;3.00;;
17173;SDS011;8702;48.130;-1.696;2022-09-27T08:03:27;10.80;;;3.00;;
17173;SDS011;8702;48.130;-1.696;2022-09-27T08:05:55;13.50;;;3.25;;
17173;SDS011;8702;48.130;-1.696;2022-09-27T08:08:22;12.35;;;2.90;;
17173;SDS011;8702;48.130;-1.696;2022-09-27T08:10:51;14.85;;;3.70;;
17173;SDS011;8702;48.130;-1.696;2022-09-27T08:13:18;10.57;;;3.13;;
17173;SDS011;8702;48.130;-1.696;2022-09-27T08:15:45;13.57;;;3.55;;
17173;SDS011;8702;48.130;-1.696;2022-09-27T08:18:14;16.57;;;3.73;;
17173;SDS011;8702;48.130;-1.696;2022-09-27T08:20:41;15.05;;;3.40;;
17173;SDS011;8702;48.130;-1.696;2022-09-27T08:23:08;14.30;;;3.40;;
17173;SDS011;8702;48.130;-1.696;2022-09-27T08:25:36;14.15;;;3.17;;
17173;SDS011;8702;48.130;-1.696;2022-09-27T08:28:05;13.20;;;3.30;;
17173;SDS011;8702;48.130;-1.696;2022-09-27T08:30:32;15.35;;;3.42;;
17173;SDS011;8702;48.130;-1.696;2022-09-27T08:32:59;15.10;;;3.25;;
17173;SDS011;8702;48.130;-1.696;2022-09-27T08:35:31;15.40;;;3.85;;
17173;SDS011;8702;48.130;-1.696;2022-09-27T08:37:59;18.13;;;4.00;;
17173;SDS011;8702;48.130;-1.696;2022-09-27T08:40:30;17.63;;;4.15;;
17173;SDS011;8702;48.130;-1.696;2022-09-27T08:43:11;15.77;;;3.95;;
17173;SDS011;8702;48.130;-1.696;2022-09-27T08:45:46;17.08;;;4.15;;
17173;SDS011;8702;48.130;-1.696;2022-09-27T08:48:25;16.23;;;3.80;;
17173;SDS011;8702;48.130;-1.696;2022-09-27T08:50:54;20.02;;;4.88;;
17173;SDS011;8702;48.130;-1.696;2022-09-27T08:53:22;15.43;;;4.35;;
17173;SDS011;8702;48.130;-1.696;2022-09-27T08:55:53;17.43;;;4.60;;
17173;SDS011;8702;48.130;-1.696;2022-09-27T08:58:24;22.27;;;4.90;;
17173;SDS011;8702;48.130;-1.696;2022-09-27T09:00:53;18.98;;;4.50;;
17173;SDS011;8702;48.130;-1.696;2022-09-27T09:03:22;21.50;;;4.88;;
17173;SDS011;8702;48.130;-1.696;2022-09-27T09:05:55;20.55;;;4.97;;
17173;SDS011;8702;48.130;-1.696;2022-09-27T09:08:36;20.58;;;5.28;;
17173;SDS011;8702;48.130;-1.696;2022-09-27T09:11:13;21.07;;;5.30;;
17173;SDS011;8702;48.130;-1.696;2022-09-27T09:14:10;21.63;;;5.13;;
17173;SDS011;8702;48.130;-1.696;2022-09-27T09:16:49;23.83;;;5.47;;
17173;SDS011;8702;48.130;-1.696;2022-09-27T09:19:32;19.87;;;5.03;;
17173;SDS011;8702;48.130;-1.696;2022-09-27T09:22:09;21.10;;;4.90;;
17173;SDS011;8702;48.130;-1.696;2022-09-27T09:24:53;18.77;;;4.95;;
17173;SDS011;8702;48.130;-1.696;2022-09-27T09:27:33;23.00;;;5.20;;
17173;SDS011;8702;48.130;-1.696;2022-09-27T09:30:16;18.02;;;5.43;;
17173;SDS011;8702;48.130;-1.696;2022-09-27T09:32:49;19.70;;;5.20;;
17173;SDS011;8702;48.130;-1.696;2022-09-27T09:35:31;21.65;;;5.70;;
17173;SDS011;8702;48.130;-1.696;2022-09-27T09:38:05;20.30;;;5.00;;
17173;SDS011;8702;48.130;-1.696;2022-09-27T09:40:38;21.37;;;5.23;;
17173;SDS011;8702;48.130;-1.696;2022-09-27T09:43:10;20.52;;;5.25;;
17173;SDS011;8702;48.130;-1.696;2022-09-27T09:45:43;20.13;;;4.82;;
17173;SDS011;8702;48.130;-1.696;2022-09-27T09:48:15;21.83;;;5.47;;
17173;SDS011;8702;48.130;-1.696;2022-09-27T09:50:50;21.05;;;5.15;;
17173;SDS011;8702;48.130;-1.696;2022-09-27T09:53:19;22.83;;;5.47;;
17173;SDS011;8702;48.130;-1.696;2022-09-27T09:56:02;23.85;;;5.60;;
17173;SDS011;8702;48.130;-1.696;2022-09-27T09:58:34;20.52;;;5.32;;
17173;SDS011;8702;48.130;-1.696;2022-09-27T10:01:13;22.15;;;5.60;;
17173;SDS011;8702;48.130;-1.696;2022-09-27T10:03:46;24.33;;;5.43;;
17173;SDS011;8702;48.130;-1.696;2022-09-27T10:06:13;23.02;;;5.60;;
17173;SDS011;8702;48.130;-1.696;2022-09-27T10:08:43;19.10;;;5.13;;
17173;SDS011;8702;48.130;-1.696;2022-09-27T10:11:15;23.02;;;5.75;;
17173;SDS011;8702;48.130;-1.696;2022-09-27T10:13:46;20.67;;;5.43;;
17173;SDS011;8702;48.130;-1.696;2022-09-27T10:16:15;22.73;;;5.00;;
17173;SDS011;8702;48.130;-1.696;2022-09-27T10:18:44;20.50;;;5.70;;
17173;SDS011;8702;48.130;-1.696;2022-09-27T10:21:13;22.37;;;5.53;;
17173;SDS011;8702;48.130;-1.696;2022-09-27T10:24:04;20.77;;;5.40;;
17173;SDS011;8702;48.130;-1.696;2022-09-27T10:26:34;21.70;;;5.25;;
17173;SDS011;8702;48.130;-1.696;2022-09-27T10:29:15;21.38;;;5.97;;
17173;SDS011;8702;48.130;-1.696;2022-09-27T10:31:50;20.17;;;5.10;;
17173;SDS011;8702;48.130;-1.696;2022-09-27T10:34:25;21.83;;;5.68;;
17173;SDS011;8702;48.130;-1.696;2022-09-27T10:37:06;18.77;;;4.97;;
17173;SDS011;8702;48.130;-1.696;2022-09-27T10:39:41;26.67;;;5.90;;
17173;SDS011;8702;48.130;-1.696;2022-09-27T10:42:19;20.23;;;5.47;;
17173;SDS011;8702;48.130;-1.696;2022-09-27T10:44:48;25.77;;;6.20;;
17173;SDS011;8702;48.130;-1.696;2022-09-27T10:47:18;21.15;;;5.60;;
17173;SDS011;8702;48.130;-1.696;2022-09-27T10:49:48;22.48;;;5.72;;
17173;SDS011;8702;48.130;-1.696;2022-09-27T10:52:17;20.42;;;5.80;;
17173;SDS011;8702;48.130;-1.696;2022-09-27T10:54:51;21.60;;;5.10;;
17173;SDS011;8702;48.130;-1.696;2022-09-27T10:57:20;21.80;;;5.80;;
17173;SDS011;8702;48.130;-1.696;2022-09-27T10:59:52;20.63;;;5.47;;
17173;SDS011;8702;48.130;-1.696;2022-09-27T11:02:24;23.35;;;5.57;;
17173;SDS011;8702;48.130;-1.696;2022-09-27T11:05:02;23.67;;;6.20;;
17173;SDS011;8702;48.130;-1.696;2022-09-27T11:07:33;20.63;;;5.38;;
17173;SDS011;8702;48.130;-1.696;2022-09-27T11:10:06;24.27;;;5.70;;
17173;SDS011;8702;48.130;-1.696;2022-09-27T11:13:01;23.93;;;5.80;;
17173;SDS011;8702;48.130;-1.696;2022-09-27T11:15:33;23.07;;;5.77;;
17173;SDS011;8702;48.130;-1.696;2022-09-27T11:18:08;21.02;;;5.90;;
17173;SDS011;8702;48.130;-1.696;2022-09-27T11:20:42;26.58;;;6.28;;
17173;SDS011;8702;48.130;-1.696;2022-09-27T11:23:22;27.07;;;6.03;;
17173;SDS011;8702;48.130;-1.696;2022-09-27T11:26:02;21.73;;;5.80;;
17173;SDS011;8702;48.130;-1.696;2022-09-27T11:28:41;20.80;;;5.70;;
17173;SDS011;8702;48.130;-1.696;2022-09-27T11:31:20;24.83;;;6.20;;
17173;SDS011;8702;48.130;-1.696;2022-09-27T11:34:14;22.20;;;6.10;;
17173;SDS011;8702;48.130;-1.696;2022-09-27T11:37:02;20.50;;;6.05;;
17173;SDS011;8702;48.130;-1.696;2022-09-27T11:39:40;20.73;;;6.00;;
17173;SDS011;8702;48.130;-1.696;2022-09-27T11:45:37;23.70;;;5.72;;
17173;SDS011;8702;48.130;-1.696;2022-09-27T11:48:24;21.90;;;5.40;;
17173;SDS011;8702;48.130;-1.696;2022-09-27T11:51:09;23.77;;;5.95;;
17173;SDS011;8702;48.130;-1.696;2022-09-27T11:53:51;26.85;;;6.15;;
17173;SDS011;8702;48.130;-1.696;2022-09-27T11:56:32;23.95;;;6.15;;
17173;SDS011;8702;48.130;-1.696;2022-09-27T11:59:15;23.83;;;6.25;;
17173;SDS011;8702;48.130;-1.696;2022-09-27T12:02:04;24.90;;;6.05;;
17173;SDS011;8702;48.130;-1.696;2022-09-27T12:04:55;25.88;;;6.07;;
17173;SDS011;8702;48.130;-1.696;2022-09-27T12:07:38;25.85;;;6.30;;
17173;SDS011;8702;48.130;-1.696;2022-09-27T12:10:11;21.25;;;5.63;;
17173;SDS011;8702;48.130;-1.696;2022-09-27T12:12:42;22.38;;;5.80;;
17173;SDS011;8702;48.130;-1.696;2022-09-27T12:15:16;24.40;;;6.18;;
17173;SDS011;8702;48.130;-1.696;2022-09-27T12:17:47;20.40;;;5.63;;
17173;SDS011;8702;48.130;-1.696;2022-09-27T12:20:18;24.50;;;5.60;;
17173;SDS011;8702;48.130;-1.696;2022-09-27T12:22:52;20.35;;;5.10;;
17173;SDS011;8702;48.130;-1.696;2022-09-27T12:25:22;19.98;;;5.75;;
17173;SDS011;8702;48.130;-1.696;2022-09-27T12:27:53;25.60;;;6.25;;
17173;SDS011;8702;48.130;-1.696;2022-09-27T12:30:26;21.58;;;5.63;;
17173;SDS011;8702;48.130;-1.696;2022-09-27T12:32:56;22.90;;;5.88;;
17173;SDS011;8702;48.130;-1.696;2022-09-27T12:35:32;26.58;;;6.47;;
17173;SDS011;8702;48.130;-1.696;2022-09-27T12:38:08;26.10;;;6.93;;
17173;SDS011;8702;48.130;-1.696;2022-09-27T12:40:39;25.73;;;6.28;;
17173;SDS011;8702;48.130;-1.696;2022-09-27T12:43:11;23.48;;;5.60;;
17173;SDS011;8702;48.130;-1.696;2022-09-27T12:45:43;27.90;;;6.45;;
17173;SDS011;8702;48.130;-1.696;2022-09-27T12:48:20;28.23;;;6.03;;
17173;SDS011;8702;48.130;-1.696;2022-09-27T12:50:54;19.45;;;5.80;;
17173;SDS011;8702;48.130;-1.696;2022-09-27T12:53:30;19.87;;;5.60;;
17173;SDS011;8702;48.130;-1.696;2022-09-27T12:56:08;20.65;;;5.78;;
17173;SDS011;8702;48.130;-1.696;2022-09-27T12:58:57;21.92;;;6.03;;
17173;SDS011;8702;48.130;-1.696;2022-09-27T13:01:44;25.35;;;6.13;;
17173;SDS011;8702;48.130;-1.696;2022-09-27T13:04:43;21.35;;;5.38;;
17173;SDS011;8702;48.130;-1.696;2022-09-27T13:07:30;20.80;;;5.27;;
17173;SDS011;8702;48.130;-1.696;2022-09-27T13:13:00;21.25;;;5.07;;
17173;SDS011;8702;48.130;-1.696;2022-09-27T13:15:30;16.60;;;5.03;;
17173;SDS011;8702;48.130;-1.696;2022-09-27T13:17:59;15.93;;;4.47;;
17173;SDS011;8702;48.130;-1.696;2022-09-27T13:26:47;17.58;;;4.40;;
17173;SDS011;8702;48.130;-1.696;2022-09-27T13:34:52;15.73;;;4.13;;
17173;SDS011;8702;48.130;-1.696;2022-09-27T13:37:21;14.63;;;4.40;;
17173;SDS011;8702;48.130;-1.696;2022-09-27T13:43:16;14.23;;;4.05;;
17173;SDS011;8702;48.130;-1.696;2022-09-27T13:45:54;14.82;;;4.20;;
17173;SDS011;8702;48.130;-1.696;2022-09-27T13:48:25;13.90;;;4.35;;
17173;SDS011;8702;48.130;-1.696;2022-09-27T13:50:57;17.98;;;4.68;;
17173;SDS011;8702;48.130;-1.696;2022-09-27T13:53:29;18.88;;;4.55;;
17173;SDS011;8702;48.130;-1.696;2022-09-27T13:56:00;21.15;;;4.85;;
17173;SDS011;8702;48.130;-1.696;2022-09-27T13:58:36;15.52;;;4.60;;
17173;SDS011;8702;48.130;-1.696;2022-09-27T14:01:14;16.10;;;4.45;;
17173;SDS011;8702;48.130;-1.696;2022-09-27T14:03:45;18.38;;;4.40;;
17173;SDS011;8702;48.130;-1.696;2022-09-27T14:06:21;16.10;;;4.95;;
17173;SDS011;8702;48.130;-1.696;2022-09-27T14:08:51;18.05;;;4.68;;
17173;SDS011;8702;48.130;-1.696;2022-09-27T14:11:22;16.45;;;4.50;;
17173;SDS011;8702;48.130;-1.696;2022-09-27T14:13:53;17.40;;;4.65;;
17173;SDS011;8702;48.130;-1.696;2022-09-27T14:16:21;20.15;;;4.78;;
17173;SDS011;8702;48.130;-1.696;2022-09-27T14:18:49;19.63;;;4.55;;
17173;SDS011;8702;48.130;-1.696;2022-09-27T14:21:25;14.05;;;4.40;;
17173;SDS011;8702;48.130;-1.696;2022-09-27T14:26:45;15.77;;;3.97;;
17173;SDS011;8702;48.130;-1.696;2022-09-27T14:29:16;14.23;;;4.15;;
17173;SDS011;8702;48.130;-1.696;2022-09-27T14:31:44;14.23;;;3.80;;
17173;SDS011;8702;48.130;-1.696;2022-09-27T14:34:13;11.80;;;3.00;;
17173;SDS011;8702;48.130;-1.696;2022-09-27T14:36:42;11.47;;;3.47;;
17173;SDS011;8702;48.130;-1.696;2022-09-27T14:39:28;12.85;;;3.58;;
17173;SDS011;8702;48.130;-1.696;2022-09-27T14:41:57;14.35;;;3.35;;
17173;SDS011;8702;48.130;-1.696;2022-09-27T14:44:26;11.77;;;3.45;;
17173;SDS011;8702;48.130;-1.696;2022-09-27T14:49:45;15.10;;;3.57;;
17173;SDS011;8702;48.130;-1.696;2022-09-27T14:52:15;13.43;;;3.15;;
17173;SDS011;8702;48.130;-1.696;2022-09-27T14:54:58;13.98;;;3.50;;
17173;SDS011;8702;48.130;-1.696;2022-09-27T14:57:27;12.40;;;3.40;;
17173;SDS011;8702;48.130;-1.696;2022-09-27T14:59:59;11.13;;;3.22;;
17173;SDS011;8702;48.130;-1.696;2022-09-27T15:02:38;14.60;;;3.40;;
17173;SDS011;8702;48.130;-1.696;2022-09-27T15:05:10;14.00;;;3.43;;
17173;SDS011;8702;48.130;-1.696;2022-09-27T15:07:40;11.95;;;3.42;;
17173;SDS011;8702;48.130;-1.696;2022-09-27T15:10:11;12.27;;;3.45;;
17173;SDS011;8702;48.130;-1.696;2022-09-27T15:12:41;10.43;;;3.30;;
17173;SDS011;8702;48.130;-1.696;2022-09-27T15:15:14;13.25;;;3.60;;
17173;SDS011;8702;48.130;-1.696;2022-09-27T15:17:44;10.93;;;3.20;;
17173;SDS011;8702;48.130;-1.696;2022-09-27T15:20:19;10.15;;;3.10;;
17173;SDS011;8702;48.130;-1.696;2022-09-27T15:22:51;13.10;;;3.50;;
17173;SDS011;8702;48.130;-1.696;2022-09-27T15:25:28;14.65;;;3.45;;
17173;SDS011;8702;48.130;-1.696;2022-09-27T15:27:59;13.85;;;3.33;;
17173;SDS011;8702;48.130;-1.696;2022-09-27T15:30:34;14.07;;;3.45;;
17173;SDS011;8702;48.130;-1.696;2022-09-27T15:33:03;14.20;;;3.40;;
17173;SDS011;8702;48.130;-1.696;2022-09-27T15:35:33;11.13;;;2.92;;